createdAt,value
2023-05-01T00:02:59.762Z,9.82
2023-05-01T00:06:03.528Z,10.83
2023-05-01T00:12:11.859Z,10.15
2023-05-01T00:15:14.527Z,8.87
2023-05-01T00:18:17.347Z,10.25
2023-05-01T00:21:19.935Z,13.10
2023-05-01T00:24:22.556Z,9.47
2023-05-01T00:27:27.298Z,9.70
2023-05-01T00:30:30.200Z,10.70
2023-05-01T00:33:32.734Z,7.97
2023-05-01T00:36:35.300Z,12.90
2023-05-01T00:39:37.774Z,9.90
2023-05-01T00:42:41.645Z,9.83
2023-05-01T00:45:45.487Z,9.80
2023-05-01T00:48:48.129Z,9.13
2023-05-01T00:51:54.188Z,8.50
2023-05-01T00:54:57.065Z,14.13
2023-05-01T00:58:01.803Z,10.32
2023-05-01T01:01:05.125Z,10.13
2023-05-01T01:04:08.123Z,13.30
2023-05-01T01:07:13.087Z,11.10
2023-05-01T01:10:20.556Z,10.13
2023-05-01T01:13:29.587Z,11.23
2023-05-01T01:16:34.875Z,8.50
2023-05-01T01:19:56.924Z,11.80
2023-05-01T01:23:11.746Z,10.77
2023-05-01T01:26:40.477Z,10.40
2023-05-01T01:30:06.756Z,10.57
2023-05-01T01:33:26.628Z,9.83
2023-05-01T01:36:48.208Z,10.10
2023-05-01T01:39:54.612Z,9.83
2023-05-01T01:43:00.789Z,7.00
2023-05-01T01:46:04.509Z,8.93
2023-05-01T01:49:09.057Z,11.87
2023-05-01T01:52:15.145Z,11.00
2023-05-01T01:55:18.880Z,9.40
2023-05-01T01:58:26.052Z,8.40
2023-05-01T02:01:30.527Z,9.20
2023-05-01T02:04:33.854Z,9.30
2023-05-01T02:07:38.947Z,11.30
2023-05-01T02:10:41.705Z,10.00
2023-05-01T02:13:44.972Z,10.23
2023-05-01T02:16:47.649Z,10.30
2023-05-01T02:19:53.108Z,11.10
2023-05-01T02:22:57.205Z,9.47
2023-05-01T02:26:01.771Z,9.27
2023-05-01T02:29:04.950Z,9.50
2023-05-01T02:32:07.493Z,8.30
2023-05-01T02:35:10.490Z,8.73
2023-05-01T02:38:15.007Z,10.30
2023-05-01T02:41:17.982Z,11.03
2023-05-01T02:44:22.300Z,10.00
2023-05-01T02:47:27.339Z,9.70
2023-05-01T02:50:30.597Z,11.60
2023-05-01T02:53:34.658Z,14.95
2023-05-01T02:56:37.440Z,10.90
2023-05-01T02:59:40.305Z,10.32
2023-05-01T03:02:42.932Z,14.68
2023-05-01T03:05:45.587Z,10.35
2023-05-01T03:08:49.650Z,9.37
2023-05-01T03:11:52.261Z,10.53
2023-05-01T03:14:54.771Z,11.63
2023-05-01T03:17:57.506Z,12.17
2023-05-01T03:21:00.314Z,10.88
2023-05-01T03:24:04.415Z,13.02
2023-05-01T03:27:07.584Z,11.83
2023-05-01T03:30:11.161Z,13.05
2023-05-01T03:36:16.400Z,14.87
2023-05-01T03:39:20.357Z,11.32
2023-05-01T03:42:22.911Z,10.57
2023-05-01T03:45:25.418Z,10.43
2023-05-01T03:48:27.915Z,12.47
2023-05-01T03:51:30.480Z,8.40
2023-05-01T03:54:34.328Z,10.50
2023-05-01T03:57:37.076Z,13.50
2023-05-01T04:00:39.654Z,10.73
2023-05-01T04:03:42.278Z,10.90
2023-05-01T04:06:45.063Z,9.32
2023-05-01T04:09:49.152Z,12.55
2023-05-01T04:12:51.917Z,8.03
2023-05-01T04:15:55.815Z,14.23
2023-05-01T04:18:58.425Z,11.63
2023-05-01T04:22:01.413Z,11.33
2023-05-01T04:25:05.717Z,10.98
2023-05-01T04:28:08.251Z,11.67
2023-05-01T04:31:10.973Z,10.03
2023-05-01T04:34:13.490Z,9.90
2023-05-01T04:37:17.875Z,11.17
2023-05-01T04:40:21.986Z,9.00
2023-05-01T04:43:24.616Z,8.70
2023-05-01T04:46:27.111Z,9.07
2023-05-01T04:49:29.744Z,12.63
2023-05-01T04:52:32.263Z,9.20
2023-05-01T04:55:36.410Z,8.53
2023-05-01T04:58:38.930Z,10.17
2023-05-01T05:01:41.498Z,9.63
2023-05-01T05:04:44.060Z,7.97
2023-05-01T05:07:46.629Z,8.80
2023-05-01T05:10:50.484Z,8.93
2023-05-01T05:13:52.930Z,13.30
2023-05-01T05:16:55.475Z,9.40
2023-05-01T05:19:58.252Z,6.83
2023-05-01T05:23:00.901Z,9.70
2023-05-01T05:26:05.532Z,7.60
2023-05-01T05:29:08.529Z,7.23
2023-05-01T05:32:11.514Z,10.57
2023-05-01T05:35:14.201Z,8.60
2023-05-01T05:38:17.055Z,10.03
2023-05-01T05:41:21.553Z,8.20
2023-05-01T05:44:24.527Z,9.23
2023-05-01T05:47:27.275Z,10.77
2023-05-01T05:50:30.271Z,7.53
2023-05-01T05:53:32.864Z,10.27
2023-05-01T05:56:36.722Z,9.87
2023-05-01T05:59:39.278Z,7.80
2023-05-01T06:02:41.969Z,8.17
2023-05-01T06:05:44.885Z,11.57
2023-05-01T06:08:47.416Z,9.50
2023-05-01T06:11:51.321Z,7.63
2023-05-01T06:14:53.947Z,10.80
2023-05-01T06:17:57.572Z,8.33
2023-05-01T06:24:02.792Z,10.43
2023-05-01T06:27:06.858Z,7.20
2023-05-01T06:30:10.749Z,7.57
2023-05-01T06:33:13.283Z,9.23
2023-05-01T06:36:15.856Z,7.80
2023-05-01T06:39:18.369Z,8.13
2023-05-01T06:42:22.215Z,12.47
2023-05-01T06:45:24.719Z,8.93
2023-05-01T06:48:27.229Z,11.10
2023-05-01T06:51:30.346Z,9.97
2023-05-01T06:54:32.920Z,9.40
2023-05-01T06:57:37.105Z,11.90
2023-05-01T07:00:39.992Z,8.97
2023-05-01T07:03:42.690Z,9.00
2023-05-01T07:06:45.537Z,10.10
2023-05-01T07:09:48.191Z,7.53
2023-05-01T07:12:52.055Z,7.60
2023-05-01T07:15:54.926Z,10.27
2023-05-01T07:18:57.598Z,6.30
2023-05-01T07:22:00.122Z,5.78
2023-05-01T07:25:03.513Z,7.50
2023-05-01T07:28:08.150Z,7.15
2023-05-01T07:31:10.979Z,7.93
2023-05-01T07:34:13.712Z,7.90
2023-05-01T07:37:16.409Z,6.85
2023-05-01T07:40:19.174Z,6.30
2023-05-01T07:43:23.312Z,6.03
2023-05-01T07:46:26.031Z,5.97
2023-05-01T07:49:28.807Z,6.03
2023-05-01T07:52:31.441Z,6.60
2023-05-01T07:55:34.019Z,5.38
2023-05-01T07:58:38.390Z,4.97
2023-05-01T08:01:41.249Z,6.27
2023-05-01T08:04:43.984Z,8.38
2023-05-01T08:07:46.583Z,6.90
2023-05-01T08:10:49.404Z,7.30
2023-05-01T08:13:53.426Z,5.70
2023-05-01T08:16:55.945Z,8.60
2023-05-01T08:19:58.837Z,6.47
2023-05-01T08:23:01.614Z,7.25
2023-05-01T08:26:04.368Z,6.40
2023-05-01T08:29:08.331Z,5.13
2023-05-01T08:32:10.975Z,6.53
2023-05-01T08:35:13.650Z,6.57
2023-05-01T08:38:16.938Z,5.63
2023-05-01T08:41:22.112Z,5.53
2023-05-01T08:44:26.840Z,7.07
2023-05-01T08:47:30.617Z,7.70
2023-05-01T08:50:35.805Z,8.40
2023-05-01T08:53:41.377Z,7.17
2023-05-01T08:56:44.716Z,5.93
2023-05-01T08:59:50.949Z,7.63
2023-05-01T09:02:53.737Z,5.67
2023-05-01T09:05:56.686Z,8.00
2023-05-01T09:08:59.476Z,8.13
2023-05-01T09:12:08.051Z,5.35
2023-05-01T09:15:12.796Z,6.50
2023-05-01T09:18:15.489Z,5.10
2023-05-01T09:21:18.110Z,6.05
2023-05-01T09:24:20.747Z,6.97
2023-05-01T09:27:24.103Z,6.93
2023-05-01T09:30:36.428Z,6.23
2023-05-01T09:33:53.960Z,5.33
2023-05-01T09:36:56.536Z,6.37
2023-05-01T09:40:07.803Z,9.45
2023-05-01T09:43:11.778Z,7.03
2023-05-01T09:46:17.130Z,6.40
2023-05-01T09:49:19.686Z,5.93
2023-05-01T09:52:22.364Z,6.72
2023-05-01T09:55:25.931Z,5.97
2023-05-01T09:58:29.060Z,7.47
2023-05-01T10:01:43.395Z,6.95
2023-05-01T10:04:46.361Z,6.03
2023-05-01T10:07:59.582Z,6.38
2023-05-01T10:11:05.171Z,7.38
2023-05-01T10:14:09.616Z,5.87
2023-05-01T10:17:20.033Z,7.10
2023-05-01T10:20:23.024Z,6.83
2023-05-01T10:23:26.309Z,7.07
2023-05-01T10:29:32.978Z,6.57
2023-05-01T10:32:38.151Z,5.60
2023-05-01T10:35:42.047Z,7.57
2023-05-01T10:38:48.252Z,6.90
2023-05-01T10:42:10.923Z,7.60
2023-05-01T10:45:30.208Z,5.80
2023-05-01T10:48:56.988Z,7.87
2023-05-01T10:52:00.925Z,5.47
2023-05-01T10:55:33.408Z,6.53
2023-05-01T10:58:58.980Z,7.90
2023-05-01T11:02:01.748Z,8.77
2023-05-01T11:05:07.030Z,6.85
2023-05-01T11:08:30.268Z,6.03
2023-05-01T11:11:51.313Z,10.05
2023-05-01T11:15:05.574Z,7.27
2023-05-01T11:18:08.972Z,5.20
2023-05-01T11:21:13.084Z,7.10
2023-05-01T11:24:17.498Z,6.87
2023-05-01T11:27:20.202Z,7.03
2023-05-01T11:30:23.111Z,8.30
2023-05-01T11:33:26.317Z,6.05
2023-05-01T11:36:32.033Z,9.20
2023-05-01T11:39:34.623Z,9.13
2023-05-01T11:42:37.200Z,7.78
2023-05-01T11:45:39.848Z,7.97
2023-05-01T11:48:42.414Z,5.47
2023-05-01T11:51:46.579Z,9.52
2023-05-01T11:54:49.434Z,7.33
2023-05-01T11:57:53.096Z,5.45
2023-05-01T12:00:55.709Z,5.83
2023-05-01T12:03:58.415Z,6.30
2023-05-01T12:07:03.663Z,8.60
2023-05-01T12:10:07.164Z,10.30
2023-05-01T12:13:11.638Z,5.10
2023-05-01T12:16:14.397Z,5.40
2023-05-01T12:19:17.603Z,6.32
2023-05-01T12:22:21.775Z,4.70
2023-05-01T12:25:31.992Z,5.03
2023-05-01T12:28:34.533Z,5.57
2023-05-01T12:31:37.602Z,6.28
2023-05-01T12:37:44.458Z,7.10
2023-05-01T12:40:57.754Z,8.53
2023-05-01T12:47:05.501Z,5.73
2023-05-01T12:50:09.964Z,5.27
2023-05-01T12:53:13.985Z,5.77
2023-05-01T12:56:24.965Z,5.47
2023-05-01T12:59:28.778Z,5.57
2023-05-01T13:02:32.406Z,8.20
2023-05-01T13:05:35.132Z,5.37
2023-05-01T13:08:40.493Z,5.18
2023-05-01T13:11:43.258Z,6.00
2023-05-01T13:14:46.041Z,6.25
2023-05-01T13:17:48.900Z,8.63
2023-05-01T13:20:52.103Z,7.15
2023-05-01T13:27:02.388Z,8.80
2023-05-01T13:30:08.118Z,5.97
2023-05-01T13:33:11.982Z,8.63
2023-05-01T13:36:25.337Z,10.17
2023-05-01T13:39:30.877Z,9.43
2023-05-01T13:42:33.655Z,5.20
2023-05-01T13:45:36.403Z,6.70
2023-05-01T13:48:40.321Z,7.32
2023-05-01T13:51:45.127Z,8.83
2023-05-01T13:54:49.248Z,5.60
2023-05-01T13:57:51.809Z,6.73
2023-05-01T14:00:54.741Z,5.30
2023-05-01T14:03:58.082Z,5.88
2023-05-01T14:07:01.274Z,6.27
2023-05-01T14:10:11.032Z,5.90
2023-05-01T14:13:14.034Z,7.10
2023-05-01T14:16:23.989Z,6.60
2023-05-01T14:19:27.300Z,6.43
2023-05-01T14:22:30.464Z,4.97
2023-05-01T14:25:35.385Z,4.18
2023-05-01T14:28:42.601Z,5.63
2023-05-01T14:31:45.150Z,4.90
2023-05-01T14:34:47.745Z,4.65
2023-05-01T14:37:50.384Z,4.68
2023-05-01T14:40:54.247Z,7.70
2023-05-01T14:43:56.943Z,7.37
2023-05-01T14:47:00.317Z,4.28
2023-05-01T14:50:03.469Z,4.07
2023-05-01T14:53:06.519Z,4.53
2023-05-01T14:59:12.970Z,5.80
2023-05-01T15:02:15.986Z,6.18
2023-05-01T15:08:21.788Z,8.45
2023-05-01T15:11:26.189Z,6.40
2023-05-01T15:14:28.677Z,5.37
2023-05-01T15:17:32.522Z,6.45
2023-05-01T15:20:35.318Z,6.23
2023-05-01T15:23:38.076Z,5.57
2023-05-01T15:26:42.650Z,7.82
2023-05-01T15:29:45.434Z,10.90
2023-05-01T15:32:48.118Z,11.23
2023-05-01T15:35:52.613Z,12.65
2023-05-01T15:38:55.174Z,12.83
2023-05-01T15:41:59.072Z,7.97
2023-05-01T15:45:02.984Z,7.70
2023-05-01T15:48:06.282Z,6.50
2023-05-01T15:51:08.956Z,8.27
2023-05-01T15:54:11.487Z,7.93
2023-05-01T15:57:17.820Z,8.18
2023-05-01T16:00:21.804Z,10.43
2023-05-01T16:03:24.531Z,8.27
2023-05-01T16:06:28.173Z,6.40
2023-05-01T16:09:31.980Z,6.30
2023-05-01T16:12:36.035Z,8.40
2023-05-01T16:15:39.068Z,8.10
2023-05-01T16:18:42.546Z,6.07
2023-05-01T16:21:45.333Z,8.27
2023-05-01T16:24:47.910Z,8.10
2023-05-01T16:27:51.774Z,6.85
2023-05-01T16:30:54.362Z,8.63
2023-05-01T16:33:57.121Z,7.18
2023-05-01T16:37:00.761Z,6.78
2023-05-01T16:40:03.421Z,7.90
2023-05-01T16:43:07.475Z,6.53
2023-05-01T16:46:10.391Z,5.90
2023-05-01T16:49:14.297Z,7.38
2023-05-01T16:52:17.629Z,8.47
2023-05-01T16:55:20.413Z,5.47
2023-05-01T16:58:24.304Z,3.55
2023-05-01T17:01:27.729Z,2.30
2023-05-01T17:07:33.351Z,3.57
2023-05-01T17:10:38.249Z,3.95
2023-05-01T17:13:42.162Z,5.47
2023-05-01T17:16:45.711Z,4.87
2023-05-01T17:19:49.329Z,3.50
2023-05-01T17:22:51.935Z,3.20
2023-05-01T17:25:54.397Z,3.00
2023-05-01T17:28:58.349Z,3.20
2023-05-01T17:32:00.998Z,3.27
2023-05-01T17:35:03.909Z,3.75
2023-05-01T17:38:06.414Z,3.50
2023-05-01T17:41:09.008Z,2.97
2023-05-01T17:44:12.862Z,5.80
2023-05-01T17:47:15.410Z,7.90
2023-05-01T17:50:19.270Z,6.30
2023-05-01T17:53:23.044Z,7.03
2023-05-01T17:56:25.809Z,4.43
2023-05-01T17:59:30.668Z,6.00
2023-05-01T18:02:33.347Z,3.97
2023-05-01T18:05:36.051Z,3.13
2023-05-01T18:08:38.528Z,4.75
2023-05-01T18:11:41.485Z,4.70
2023-05-01T18:14:45.365Z,4.32
2023-05-01T18:17:48.020Z,2.70
2023-05-01T18:20:50.700Z,3.83
2023-05-01T18:23:53.232Z,4.85
2023-05-01T18:26:55.758Z,3.07
2023-05-01T18:30:00.371Z,4.43
2023-05-01T18:33:03.541Z,4.80
2023-05-01T18:36:06.404Z,3.70
2023-05-01T18:39:08.891Z,5.65
2023-05-01T18:42:11.500Z,5.33
2023-05-01T18:45:15.436Z,4.13
2023-05-01T18:48:18.020Z,4.63
2023-05-01T18:51:20.851Z,3.53
2023-05-01T18:54:23.927Z,8.10
2023-05-01T18:57:27.619Z,4.43
2023-05-01T19:00:31.761Z,5.07
2023-05-01T19:03:34.300Z,7.03
2023-05-01T19:06:36.952Z,5.18
2023-05-01T19:09:39.564Z,5.30
2023-05-01T19:12:42.314Z,5.00
2023-05-01T19:15:46.449Z,7.85
2023-05-01T19:18:49.005Z,4.63
2023-05-01T19:21:51.651Z,4.17
2023-05-01T19:24:54.207Z,4.65
2023-05-01T19:27:57.288Z,5.57
2023-05-01T19:31:01.284Z,5.10
2023-05-01T19:34:03.839Z,5.17
2023-05-01T19:37:06.456Z,5.63
2023-05-01T19:40:09.999Z,5.47
2023-05-01T19:46:17.313Z,5.57
2023-05-01T19:49:19.995Z,4.13
2023-05-01T19:52:22.660Z,5.93
2023-05-01T19:55:25.284Z,24.40
2023-05-01T19:58:28.231Z,6.33
2023-05-01T20:01:32.426Z,6.85
2023-05-01T20:04:35.061Z,7.00
2023-05-01T20:07:37.967Z,5.37
2023-05-01T20:10:40.560Z,6.93
2023-05-01T20:13:43.148Z,7.10
2023-05-01T20:16:48.973Z,5.90
2023-05-01T20:19:51.660Z,5.20
2023-05-01T20:23:10.078Z,7.03
2023-05-01T20:26:12.627Z,9.73
2023-05-01T20:29:15.466Z,5.50
2023-05-01T20:32:19.390Z,4.72
2023-05-01T20:35:21.973Z,5.70
2023-05-01T20:38:24.554Z,6.50
2023-05-01T20:41:27.899Z,6.23
2023-05-01T20:44:30.424Z,5.90
2023-05-01T20:47:34.356Z,6.70
2023-05-01T20:50:37.126Z,5.80
2023-05-01T20:53:39.737Z,6.25
2023-05-01T20:56:42.247Z,7.10
2023-05-01T20:59:47.664Z,4.80
2023-05-01T21:02:52.943Z,3.80
2023-05-01T21:05:59.333Z,4.53
2023-05-01T21:09:04.613Z,8.80
2023-05-01T21:12:08.982Z,5.27
2023-05-01T21:15:12.279Z,3.70
2023-05-01T21:18:20.279Z,4.95
2023-05-01T21:21:24.781Z,4.23
2023-05-01T21:24:27.294Z,4.23
2023-05-01T21:27:29.777Z,3.87
2023-05-01T21:30:34.247Z,5.53
2023-05-01T21:33:39.966Z,5.57
2023-05-01T21:36:44.931Z,5.90
2023-05-01T21:39:47.424Z,4.13
2023-05-01T21:42:50.044Z,5.17
2023-05-01T21:45:52.594Z,4.00
2023-05-01T21:48:56.471Z,6.50
2023-05-01T21:52:00.904Z,7.37
2023-05-01T21:55:04.253Z,5.23
2023-05-01T21:58:06.895Z,3.47
2023-05-01T22:01:10.321Z,6.93
2023-05-01T22:04:18.115Z,4.90
2023-05-01T22:07:20.652Z,3.73
2023-05-01T22:10:23.188Z,3.60
2023-05-01T22:13:31.958Z,4.80
2023-05-01T22:16:34.795Z,3.03
2023-05-01T22:19:38.879Z,6.40
2023-05-01T22:22:42.899Z,3.67
2023-05-01T22:25:45.596Z,4.30
2023-05-01T22:28:49.665Z,7.80
2023-05-01T22:31:52.201Z,3.77
2023-05-01T22:34:56.365Z,4.43
2023-05-01T22:37:58.920Z,4.50
2023-05-01T22:41:01.490Z,4.37
2023-05-01T22:44:03.960Z,5.83
2023-05-01T22:47:07.102Z,4.20
2023-05-01T22:50:11.946Z,3.88
2023-05-01T22:53:14.448Z,4.93
2023-05-01T22:56:17.058Z,5.43
2023-05-01T22:59:19.981Z,4.67
2023-05-01T23:02:22.769Z,5.00
2023-05-01T23:05:27.016Z,4.25
2023-05-01T23:08:29.511Z,5.73
2023-05-01T23:11:33.241Z,6.93
2023-05-01T23:14:37.886Z,7.00
2023-05-01T23:17:40.849Z,8.10
2023-05-01T23:20:44.910Z,4.63
2023-05-01T23:23:48.089Z,4.60
2023-05-01T23:26:50.625Z,7.43
2023-05-01T23:29:56.462Z,3.77
2023-05-01T23:32:59.665Z,7.13
2023-05-01T23:36:03.942Z,5.40
2023-05-01T23:39:08.498Z,5.33
2023-05-01T23:42:11.119Z,4.87
2023-05-01T23:45:13.631Z,5.97
2023-05-01T23:48:16.235Z,8.47
2023-05-01T23:51:20.173Z,7.18
2023-05-01T23:54:22.715Z,5.53
2023-05-01T23:57:25.422Z,5.73
